sensor_id;sensor_type;location;lat;lon;timestamp;temperature;humidity
23597;DHT22;40226;50.874;4.394;2024-02-26T00:01:36;8.30;99.90
23597;DHT22;40226;50.874;4.394;2024-02-26T00:04:01;8.30;99.90
23597;DHT22;40226;50.874;4.394;2024-02-26T00:06:28;8.40;99.90
23597;DHT22;40226;50.874;4.394;2024-02-26T00:08:54;8.30;99.90
23597;DHT22;40226;50.874;4.394;2024-02-26T00:11:20;8.30;99.90
23597;DHT22;40226;50.874;4.394;2024-02-26T00:13:45;8.10;99.90
23597;DHT22;40226;50.874;4.394;2024-02-26T00:16:11;8.10;99.90
23597;DHT22;40226;50.874;4.394;2024-02-26T00:18:36;8.10;99.90
23597;DHT22;40226;50.874;4.394;2024-02-26T00:21:02;8.10;99.90
23597;DHT22;40226;50.874;4.394;2024-02-26T00:23:28;8.10;99.90
23597;DHT22;40226;50.874;4.394;2024-02-26T00:25:54;8.10;99.90
23597;DHT22;40226;50.874;4.394;2024-02-26T00:28:20;8.10;99.90
23597;DHT22;40226;50.874;4.394;2024-02-26T00:30:46;8.00;99.90
23597;DHT22;40226;50.874;4.394;2024-02-26T00:33:13;8.00;99.90
23597;DHT22;40226;50.874;4.394;2024-02-26T00:35:39;8.00;99.90
23597;DHT22;40226;50.874;4.394;2024-02-26T00:38:05;7.90;99.90
23597;DHT22;40226;50.874;4.394;2024-02-26T00:40:31;7.90;99.90
23597;DHT22;40226;50.874;4.394;2024-02-26T00:42:56;7.90;99.90
23597;DHT22;40226;50.874;4.394;2024-02-26T00:45:22;7.90;99.90
23597;DHT22;40226;50.874;4.394;2024-02-26T00:47:48;7.80;99.90
23597;DHT22;40226;50.874;4.394;2024-02-26T00:50:14;7.90;99.90
23597;DHT22;40226;50.874;4.394;2024-02-26T00:52:40;7.80;99.90
23597;DHT22;40226;50.874;4.394;2024-02-26T00:55:06;7.80;99.90
23597;DHT22;40226;50.874;4.394;2024-02-26T00:57:32;7.90;99.90
23597;DHT22;40226;50.874;4.394;2024-02-26T00:59:58;7.80;99.90
23597;DHT22;40226;50.874;4.394;2024-02-26T01:02:24;7.70;99.90
23597;DHT22;40226;50.874;4.394;2024-02-26T01:04:50;7.80;99.90
23597;DHT22;40226;50.874;4.394;2024-02-26T01:07:16;7.90;99.90
23597;DHT22;40226;50.874;4.394;2024-02-26T01:09:42;7.70;99.90
23597;DHT22;40226;50.874;4.394;2024-02-26T01:12:07;7.90;99.90
23597;DHT22;40226;50.874;4.394;2024-02-26T01:14:33;7.70;99.90
23597;DHT22;40226;50.874;4.394;2024-02-26T01:16:59;7.70;99.90
23597;DHT22;40226;50.874;4.394;2024-02-26T01:19:24;7.60;99.90
23597;DHT22;40226;50.874;4.394;2024-02-26T01:21:50;7.80;99.90
23597;DHT22;40226;50.874;4.394;2024-02-26T01:24:16;7.60;99.90
23597;DHT22;40226;50.874;4.394;2024-02-26T01:26:42;7.60;99.90
23597;DHT22;40226;50.874;4.394;2024-02-26T01:29:07;7.60;99.90
23597;DHT22;40226;50.874;4.394;2024-02-26T01:31:33;7.60;99.90
23597;DHT22;40226;50.874;4.394;2024-02-26T01:33:58;7.50;99.90
23597;DHT22;40226;50.874;4.394;2024-02-26T01:36:24;7.50;99.90
23597;DHT22;40226;50.874;4.394;2024-02-26T01:38:50;7.60;99.90
23597;DHT22;40226;50.874;4.394;2024-02-26T01:41:16;7.60;99.90
23597;DHT22;40226;50.874;4.394;2024-02-26T01:43:42;7.60;99.90
23597;DHT22;40226;50.874;4.394;2024-02-26T01:46:12;7.60;99.90
23597;DHT22;40226;50.874;4.394;2024-02-26T01:48:42;7.60;99.90
23597;DHT22;40226;50.874;4.394;2024-02-26T01:51:10;7.70;99.90
23597;DHT22;40226;50.874;4.394;2024-02-26T01:53:36;7.70;99.90
23597;DHT22;40226;50.874;4.394;2024-02-26T01:56:02;7.70;99.90
23597;DHT22;40226;50.874;4.394;2024-02-26T01:58:28;7.60;99.90
23597;DHT22;40226;50.874;4.394;2024-02-26T02:00:55;7.50;99.90
23597;DHT22;40226;50.874;4.394;2024-02-26T02:03:22;7.50;99.90
23597;DHT22;40226;50.874;4.394;2024-02-26T02:05:47;7.50;99.90
23597;DHT22;40226;50.874;4.394;2024-02-26T02:08:13;7.50;99.90
23597;DHT22;40226;50.874;4.394;2024-02-26T02:10:40;7.50;99.90
23597;DHT22;40226;50.874;4.394;2024-02-26T02:13:07;7.40;99.90
23597;DHT22;40226;50.874;4.394;2024-02-26T02:15:32;7.40;99.90
23597;DHT22;40226;50.874;4.394;2024-02-26T02:17:58;7.50;99.90
23597;DHT22;40226;50.874;4.394;2024-02-26T02:20:26;7.50;99.90
23597;DHT22;40226;50.874;4.394;2024-02-26T02:22:56;7.50;99.90
23597;DHT22;40226;50.874;4.394;2024-02-26T02:25:22;7.50;99.90
23597;DHT22;40226;50.874;4.394;2024-02-26T02:27:47;7.40;99.90
23597;DHT22;40226;50.874;4.394;2024-02-26T02:30:13;7.50;99.90
23597;DHT22;40226;50.874;4.394;2024-02-26T02:32:40;7.60;99.90
23597;DHT22;40226;50.874;4.394;2024-02-26T02:35:07;7.50;99.90
23597;DHT22;40226;50.874;4.394;2024-02-26T02:37:32;7.40;99.90
23597;DHT22;40226;50.874;4.394;2024-02-26T02:39:58;7.30;99.90
23597;DHT22;40226;50.874;4.394;2024-02-26T02:42:24;7.40;99.90
23597;DHT22;40226;50.874;4.394;2024-02-26T02:44:50;7.50;99.90
23597;DHT22;40226;50.874;4.394;2024-02-26T02:47:15;7.40;99.90
23597;DHT22;40226;50.874;4.394;2024-02-26T02:49:41;7.50;99.90
23597;DHT22;40226;50.874;4.394;2024-02-26T02:52:06;7.40;99.90
23597;DHT22;40226;50.874;4.394;2024-02-26T02:54:32;7.40;99.90
23597;DHT22;40226;50.874;4.394;2024-02-26T02:56:58;7.30;99.90
23597;DHT22;40226;50.874;4.394;2024-02-26T02:59:23;7.40;99.90
23597;DHT22;40226;50.874;4.394;2024-02-26T03:01:49;7.40;99.90
23597;DHT22;40226;50.874;4.394;2024-02-26T03:04:15;7.40;99.90
23597;DHT22;40226;50.874;4.394;2024-02-26T03:06:40;7.40;99.90
23597;DHT22;40226;50.874;4.394;2024-02-26T03:09:07;7.40;99.90
23597;DHT22;40226;50.874;4.394;2024-02-26T03:11:32;7.30;99.90
23597;DHT22;40226;50.874;4.394;2024-02-26T03:13:58;7.40;99.90
23597;DHT22;40226;50.874;4.394;2024-02-26T03:16:23;7.40;99.90
23597;DHT22;40226;50.874;4.394;2024-02-26T03:18:49;7.30;99.90
23597;DHT22;40226;50.874;4.394;2024-02-26T03:21:15;7.20;99.90
23597;DHT22;40226;50.874;4.394;2024-02-26T03:23:40;7.30;99.90
23597;DHT22;40226;50.874;4.394;2024-02-26T03:26:06;7.30;99.90
23597;DHT22;40226;50.874;4.394;2024-02-26T03:28:31;7.30;99.90
23597;DHT22;40226;50.874;4.394;2024-02-26T03:31:01;7.40;99.90
23597;DHT22;40226;50.874;4.394;2024-02-26T03:33:27;7.30;99.90
23597;DHT22;40226;50.874;4.394;2024-02-26T03:35:53;7.30;99.90
23597;DHT22;40226;50.874;4.394;2024-02-26T03:38:18;7.40;99.90
23597;DHT22;40226;50.874;4.394;2024-02-26T03:40:44;7.30;99.90
23597;DHT22;40226;50.874;4.394;2024-02-26T03:43:09;7.30;99.90
23597;DHT22;40226;50.874;4.394;2024-02-26T03:45:35;7.30;99.90
23597;DHT22;40226;50.874;4.394;2024-02-26T03:48:00;7.40;99.90
23597;DHT22;40226;50.874;4.394;2024-02-26T03:50:26;7.30;99.90
23597;DHT22;40226;50.874;4.394;2024-02-26T03:52:51;7.20;99.90
23597;DHT22;40226;50.874;4.394;2024-02-26T03:55:17;7.20;99.90
23597;DHT22;40226;50.874;4.394;2024-02-26T03:57:46;7.30;99.90
23597;DHT22;40226;50.874;4.394;2024-02-26T04:00:12;7.30;99.90
23597;DHT22;40226;50.874;4.394;2024-02-26T04:02:38;7.30;99.90
23597;DHT22;40226;50.874;4.394;2024-02-26T04:05:04;7.30;99.90
23597;DHT22;40226;50.874;4.394;2024-02-26T04:07:30;7.30;99.90
23597;DHT22;40226;50.874;4.394;2024-02-26T04:09:55;7.20;99.90
23597;DHT22;40226;50.874;4.394;2024-02-26T04:12:21;7.20;99.90
23597;DHT22;40226;50.874;4.394;2024-02-26T04:14:46;7.40;99.90
23597;DHT22;40226;50.874;4.394;2024-02-26T04:17:12;7.30;99.90
23597;DHT22;40226;50.874;4.394;2024-02-26T04:19:38;7.30;99.90
23597;DHT22;40226;50.874;4.394;2024-02-26T04:22:03;7.20;99.90
23597;DHT22;40226;50.874;4.394;2024-02-26T04:24:29;7.20;99.90
23597;DHT22;40226;50.874;4.394;2024-02-26T04:26:54;7.10;99.90
23597;DHT22;40226;50.874;4.394;2024-02-26T04:29:20;7.10;99.90
23597;DHT22;40226;50.874;4.394;2024-02-26T04:31:46;7.10;99.90
23597;DHT22;40226;50.874;4.394;2024-02-26T04:34:12;7.10;99.90
23597;DHT22;40226;50.874;4.394;2024-02-26T04:36:37;7.10;99.90
23597;DHT22;40226;50.874;4.394;2024-02-26T04:39:03;7.20;99.90
23597;DHT22;40226;50.874;4.394;2024-02-26T04:41:28;7.20;99.90
23597;DHT22;40226;50.874;4.394;2024-02-26T04:43:54;7.20;99.90
23597;DHT22;40226;50.874;4.394;2024-02-26T04:46:20;7.10;99.90
23597;DHT22;40226;50.874;4.394;2024-02-26T04:48:47;7.10;99.90
23597;DHT22;40226;50.874;4.394;2024-02-26T04:51:13;7.00;99.90
23597;DHT22;40226;50.874;4.394;2024-02-26T04:53:38;7.00;99.90
23597;DHT22;40226;50.874;4.394;2024-02-26T04:56:04;7.00;99.90
23597;DHT22;40226;50.874;4.394;2024-02-26T04:58:30;7.00;99.90
23597;DHT22;40226;50.874;4.394;2024-02-26T05:00:55;7.00;99.90
23597;DHT22;40226;50.874;4.394;2024-02-26T05:03:21;6.90;99.90
23597;DHT22;40226;50.874;4.394;2024-02-26T05:05:47;7.00;99.90
23597;DHT22;40226;50.874;4.394;2024-02-26T05:08:12;6.90;99.90
23597;DHT22;40226;50.874;4.394;2024-02-26T05:10:38;6.80;99.90
23597;DHT22;40226;50.874;4.394;2024-02-26T05:13:08;6.90;99.90
23597;DHT22;40226;50.874;4.394;2024-02-26T05:15:34;7.00;99.90
23597;DHT22;40226;50.874;4.394;2024-02-26T05:18:00;7.00;99.90
23597;DHT22;40226;50.874;4.394;2024-02-26T05:20:26;6.90;99.90
23597;DHT22;40226;50.874;4.394;2024-02-26T05:22:51;7.00;99.90
23597;DHT22;40226;50.874;4.394;2024-02-26T05:25:17;7.00;99.90
23597;DHT22;40226;50.874;4.394;2024-02-26T05:27:44;6.90;99.90
23597;DHT22;40226;50.874;4.394;2024-02-26T05:30:10;7.10;99.90
23597;DHT22;40226;50.874;4.394;2024-02-26T05:32:36;7.10;99.90
23597;DHT22;40226;50.874;4.394;2024-02-26T05:35:02;7.10;99.90
23597;DHT22;40226;50.874;4.394;2024-02-26T05:37:30;7.10;99.90
23597;DHT22;40226;50.874;4.394;2024-02-26T05:39:56;7.20;99.90
23597;DHT22;40226;50.874;4.394;2024-02-26T05:42:22;7.10;99.90
23597;DHT22;40226;50.874;4.394;2024-02-26T05:44:47;6.90;99.90
23597;DHT22;40226;50.874;4.394;2024-02-26T05:47:13;7.00;99.90
23597;DHT22;40226;50.874;4.394;2024-02-26T05:49:39;6.90;99.90
23597;DHT22;40226;50.874;4.394;2024-02-26T05:52:05;7.00;99.90
23597;DHT22;40226;50.874;4.394;2024-02-26T05:54:30;7.00;99.90
23597;DHT22;40226;50.874;4.394;2024-02-26T05:56:56;7.00;99.90
23597;DHT22;40226;50.874;4.394;2024-02-26T05:59:22;6.90;99.90
23597;DHT22;40226;50.874;4.394;2024-02-26T06:01:48;6.90;99.90
23597;DHT22;40226;50.874;4.394;2024-02-26T06:04:13;6.90;99.90
23597;DHT22;40226;50.874;4.394;2024-02-26T06:06:39;7.00;99.90
23597;DHT22;40226;50.874;4.394;2024-02-26T06:09:04;7.00;99.90
23597;DHT22;40226;50.874;4.394;2024-02-26T06:11:30;7.00;99.90
23597;DHT22;40226;50.874;4.394;2024-02-26T06:13:56;6.90;99.90
23597;DHT22;40226;50.874;4.394;2024-02-26T06:16:22;6.90;99.90
23597;DHT22;40226;50.874;4.394;2024-02-26T06:18:47;6.90;99.90
23597;DHT22;40226;50.874;4.394;2024-02-26T06:21:13;6.80;99.90
23597;DHT22;40226;50.874;4.394;2024-02-26T06:23:39;6.90;99.90
23597;DHT22;40226;50.874;4.394;2024-02-26T06:26:05;6.90;99.90
23597;DHT22;40226;50.874;4.394;2024-02-26T06:28:31;7.00;99.90
23597;DHT22;40226;50.874;4.394;2024-02-26T06:30:59;7.10;99.90
23597;DHT22;40226;50.874;4.394;2024-02-26T06:33:24;7.10;99.90
23597;DHT22;40226;50.874;4.394;2024-02-26T06:35:50;7.00;99.90
23597;DHT22;40226;50.874;4.394;2024-02-26T06:38:16;7.10;99.90
23597;DHT22;40226;50.874;4.394;2024-02-26T06:40:43;6.90;99.90
23597;DHT22;40226;50.874;4.394;2024-02-26T06:43:09;6.90;99.90
23597;DHT22;40226;50.874;4.394;2024-02-26T06:45:34;6.90;99.90
23597;DHT22;40226;50.874;4.394;2024-02-26T06:48:00;6.90;99.90
23597;DHT22;40226;50.874;4.394;2024-02-26T06:50:26;7.00;99.90
23597;DHT22;40226;50.874;4.394;2024-02-26T06:52:52;6.90;99.90
23597;DHT22;40226;50.874;4.394;2024-02-26T06:55:17;7.00;99.90
23597;DHT22;40226;50.874;4.394;2024-02-26T06:57:43;6.90;99.90
23597;DHT22;40226;50.874;4.394;2024-02-26T07:00:09;6.90;99.90
23597;DHT22;40226;50.874;4.394;2024-02-26T07:02:39;6.90;99.90
23597;DHT22;40226;50.874;4.394;2024-02-26T07:05:06;6.90;99.90
23597;DHT22;40226;50.874;4.394;2024-02-26T07:07:31;6.90;99.90
23597;DHT22;40226;50.874;4.394;2024-02-26T07:09:57;6.70;99.90
23597;DHT22;40226;50.874;4.394;2024-02-26T07:12:23;6.80;99.90
23597;DHT22;40226;50.874;4.394;2024-02-26T07:14:49;6.80;99.90
23597;DHT22;40226;50.874;4.394;2024-02-26T07:17:15;6.80;99.90
23597;DHT22;40226;50.874;4.394;2024-02-26T07:19:42;6.90;99.90
23597;DHT22;40226;50.874;4.394;2024-02-26T07:22:07;6.80;99.90
23597;DHT22;40226;50.874;4.394;2024-02-26T07:24:33;6.90;99.90
23597;DHT22;40226;50.874;4.394;2024-02-26T07:26:59;6.80;99.90
23597;DHT22;40226;50.874;4.394;2024-02-26T07:29:24;6.90;99.90
23597;DHT22;40226;50.874;4.394;2024-02-26T07:31:50;6.90;99.90
23597;DHT22;40226;50.874;4.394;2024-02-26T07:34:15;7.00;99.90
23597;DHT22;40226;50.874;4.394;2024-02-26T07:36:41;6.90;99.90
23597;DHT22;40226;50.874;4.394;2024-02-26T07:39:06;6.90;99.90
23597;DHT22;40226;50.874;4.394;2024-02-26T07:41:32;6.80;99.90
23597;DHT22;40226;50.874;4.394;2024-02-26T07:43:58;6.70;99.90
23597;DHT22;40226;50.874;4.394;2024-02-26T07:46:23;6.70;99.90
23597;DHT22;40226;50.874;4.394;2024-02-26T07:48:49;6.80;99.90
23597;DHT22;40226;50.874;4.394;2024-02-26T07:51:15;6.80;99.90
23597;DHT22;40226;50.874;4.394;2024-02-26T07:53:41;6.80;99.90
23597;DHT22;40226;50.874;4.394;2024-02-26T07:56:06;7.00;99.90
23597;DHT22;40226;50.874;4.394;2024-02-26T07:58:33;6.90;99.90
23597;DHT22;40226;50.874;4.394;2024-02-26T08:00:59;7.00;99.90
23597;DHT22;40226;50.874;4.394;2024-02-26T08:03:24;7.00;99.90
23597;DHT22;40226;50.874;4.394;2024-02-26T08:05:51;6.90;99.90
23597;DHT22;40226;50.874;4.394;2024-02-26T08:08:17;6.90;99.90
23597;DHT22;40226;50.874;4.394;2024-02-26T08:10:42;7.00;99.90
23597;DHT22;40226;50.874;4.394;2024-02-26T08:13:08;7.00;99.90
23597;DHT22;40226;50.874;4.394;2024-02-26T08:15:35;6.90;99.90
23597;DHT22;40226;50.874;4.394;2024-02-26T08:18:01;6.90;99.90
23597;DHT22;40226;50.874;4.394;2024-02-26T08:20:30;7.10;99.90
23597;DHT22;40226;50.874;4.394;2024-02-26T08:22:56;7.00;99.90
23597;DHT22;40226;50.874;4.394;2024-02-26T08:25:22;7.00;99.90
23597;DHT22;40226;50.874;4.394;2024-02-26T08:27:48;7.10;99.90
23597;DHT22;40226;50.874;4.394;2024-02-26T08:30:14;6.90;99.90
23597;DHT22;40226;50.874;4.394;2024-02-26T08:32:43;6.90;99.90
23597;DHT22;40226;50.874;4.394;2024-02-26T08:35:08;6.90;99.90
23597;DHT22;40226;50.874;4.394;2024-02-26T08:37:34;6.90;99.90
23597;DHT22;40226;50.874;4.394;2024-02-26T08:39:59;7.00;99.90
23597;DHT22;40226;50.874;4.394;2024-02-26T08:42:25;7.20;99.90
23597;DHT22;40226;50.874;4.394;2024-02-26T08:44:50;7.10;99.90
23597;DHT22;40226;50.874;4.394;2024-02-26T08:47:16;7.10;99.90
23597;DHT22;40226;50.874;4.394;2024-02-26T08:49:45;7.20;99.90
23597;DHT22;40226;50.874;4.394;2024-02-26T08:52:11;7.00;99.90
23597;DHT22;40226;50.874;4.394;2024-02-26T08:54:37;6.90;99.90
23597;DHT22;40226;50.874;4.394;2024-02-26T08:57:03;7.00;99.90
23597;DHT22;40226;50.874;4.394;2024-02-26T08:59:29;7.10;99.90
23597;DHT22;40226;50.874;4.394;2024-02-26T09:01:55;7.10;99.90
23597;DHT22;40226;50.874;4.394;2024-02-26T09:04:20;7.10;99.90
23597;DHT22;40226;50.874;4.394;2024-02-26T09:06:46;7.00;99.90
23597;DHT22;40226;50.874;4.394;2024-02-26T09:09:12;6.90;99.90
23597;DHT22;40226;50.874;4.394;2024-02-26T09:11:38;6.90;99.90
23597;DHT22;40226;50.874;4.394;2024-02-26T09:14:04;6.90;99.90
23597;DHT22;40226;50.874;4.394;2024-02-26T09:16:30;7.10;99.90
23597;DHT22;40226;50.874;4.394;2024-02-26T09:18:56;7.10;99.90
23597;DHT22;40226;50.874;4.394;2024-02-26T09:21:22;7.10;99.90
23597;DHT22;40226;50.874;4.394;2024-02-26T09:23:52;7.00;99.90
23597;DHT22;40226;50.874;4.394;2024-02-26T09:26:18;7.00;99.90
23597;DHT22;40226;50.874;4.394;2024-02-26T09:28:44;7.00;99.90
23597;DHT22;40226;50.874;4.394;2024-02-26T09:31:10;6.80;99.90
23597;DHT22;40226;50.874;4.394;2024-02-26T09:33:35;6.70;99.90
23597;DHT22;40226;50.874;4.394;2024-02-26T09:36:02;6.60;99.90
23597;DHT22;40226;50.874;4.394;2024-02-26T09:38:27;6.70;99.90
23597;DHT22;40226;50.874;4.394;2024-02-26T09:40:53;6.70;99.90
23597;DHT22;40226;50.874;4.394;2024-02-26T09:43:22;6.80;99.90
23597;DHT22;40226;50.874;4.394;2024-02-26T09:45:53;6.70;99.90
23597;DHT22;40226;50.874;4.394;2024-02-26T09:48:19;6.60;99.90
23597;DHT22;40226;50.874;4.394;2024-02-26T09:50:45;6.70;99.90
23597;DHT22;40226;50.874;4.394;2024-02-26T09:53:12;6.60;99.90
23597;DHT22;40226;50.874;4.394;2024-02-26T09:55:40;6.70;99.90
23597;DHT22;40226;50.874;4.394;2024-02-26T09:58:06;6.70;99.90
23597;DHT22;40226;50.874;4.394;2024-02-26T10:00:36;6.70;99.90
23597;DHT22;40226;50.874;4.394;2024-02-26T10:03:04;6.70;99.90
23597;DHT22;40226;50.874;4.394;2024-02-26T10:05:32;6.60;99.90
23597;DHT22;40226;50.874;4.394;2024-02-26T10:07:59;6.70;99.90
23597;DHT22;40226;50.874;4.394;2024-02-26T10:10:30;6.60;99.90
23597;DHT22;40226;50.874;4.394;2024-02-26T10:12:57;6.70;99.90
23597;DHT22;40226;50.874;4.394;2024-02-26T10:15:24;6.70;99.90
23597;DHT22;40226;50.874;4.394;2024-02-26T10:17:49;6.80;99.90
23597;DHT22;40226;50.874;4.394;2024-02-26T10:20:18;6.90;99.90
23597;DHT22;40226;50.874;4.394;2024-02-26T10:22:47;6.80;99.90
23597;DHT22;40226;50.874;4.394;2024-02-26T10:25:12;6.80;99.90
23597;DHT22;40226;50.874;4.394;2024-02-26T10:27:40;7.00;99.90
23597;DHT22;40226;50.874;4.394;2024-02-26T10:32:44;6.80;99.90
23597;DHT22;40226;50.874;4.394;2024-02-26T10:35:09;6.80;99.90
23597;DHT22;40226;50.874;4.394;2024-02-26T10:37:35;6.90;99.90
23597;DHT22;40226;50.874;4.394;2024-02-26T10:40:01;7.10;99.90
23597;DHT22;40226;50.874;4.394;2024-02-26T10:42:27;7.00;99.90
23597;DHT22;40226;50.874;4.394;2024-02-26T10:44:53;6.90;99.90
23597;DHT22;40226;50.874;4.394;2024-02-26T10:47:18;6.90;99.90
23597;DHT22;40226;50.874;4.394;2024-02-26T10:49:47;6.90;99.90
23597;DHT22;40226;50.874;4.394;2024-02-26T10:52:14;6.90;99.90
23597;DHT22;40226;50.874;4.394;2024-02-26T10:54:41;6.90;99.90
23597;DHT22;40226;50.874;4.394;2024-02-26T10:57:09;6.80;99.90
23597;DHT22;40226;50.874;4.394;2024-02-26T10:59:35;6.90;99.90
23597;DHT22;40226;50.874;4.394;2024-02-26T11:02:02;6.70;99.90
23597;DHT22;40226;50.874;4.394;2024-02-26T11:04:29;6.90;99.90
23597;DHT22;40226;50.874;4.394;2024-02-26T11:06:57;6.80;99.90
23597;DHT22;40226;50.874;4.394;2024-02-26T11:09:23;6.90;99.90
23597;DHT22;40226;50.874;4.394;2024-02-26T11:11:50;6.90;99.90
23597;DHT22;40226;50.874;4.394;2024-02-26T11:14:20;6.80;99.90
23597;DHT22;40226;50.874;4.394;2024-02-26T11:16:47;6.90;99.90
23597;DHT22;40226;50.874;4.394;2024-02-26T11:19:15;6.90;99.90
23597;DHT22;40226;50.874;4.394;2024-02-26T11:21:41;6.70;99.90
23597;DHT22;40226;50.874;4.394;2024-02-26T11:24:13;6.70;99.90
23597;DHT22;40226;50.874;4.394;2024-02-26T11:26:47;6.60;99.90
23597;DHT22;40226;50.874;4.394;2024-02-26T11:29:20;6.50;99.90
23597;DHT22;40226;50.874;4.394;2024-02-26T11:31:47;6.60;99.90
23597;DHT22;40226;50.874;4.394;2024-02-26T11:34:13;6.70;99.90
23597;DHT22;40226;50.874;4.394;2024-02-26T11:36:38;6.60;99.90
23597;DHT22;40226;50.874;4.394;2024-02-26T11:39:04;6.30;99.90
23597;DHT22;40226;50.874;4.394;2024-02-26T11:41:31;6.30;99.90
23597;DHT22;40226;50.874;4.394;2024-02-26T11:44:03;6.40;99.90
23597;DHT22;40226;50.874;4.394;2024-02-26T11:46:33;6.50;99.90
23597;DHT22;40226;50.874;4.394;2024-02-26T11:51:54;6.50;99.90
23597;DHT22;40226;50.874;4.394;2024-02-26T11:57:23;6.50;99.90
23597;DHT22;40226;50.874;4.394;2024-02-26T11:59:49;6.30;99.90
23597;DHT22;40226;50.874;4.394;2024-02-26T12:02:41;6.30;99.90
23597;DHT22;40226;50.874;4.394;2024-02-26T12:07:43;6.30;99.90
23597;DHT22;40226;50.874;4.394;2024-02-26T12:10:27;6.20;99.90
23597;DHT22;40226;50.874;4.394;2024-02-26T12:16:00;6.30;99.90
23597;DHT22;40226;50.874;4.394;2024-02-26T12:18:26;6.30;99.90
23597;DHT22;40226;50.874;4.394;2024-02-26T12:21:02;6.30;99.90
23597;DHT22;40226;50.874;4.394;2024-02-26T12:23:29;6.30;99.90
23597;DHT22;40226;50.874;4.394;2024-02-26T12:25:59;6.50;99.90
23597;DHT22;40226;50.874;4.394;2024-02-26T12:28:28;6.50;99.90
23597;DHT22;40226;50.874;4.394;2024-02-26T12:30:54;6.50;99.90
23597;DHT22;40226;50.874;4.394;2024-02-26T12:33:20;6.60;99.90
23597;DHT22;40226;50.874;4.394;2024-02-26T12:35:46;6.60;99.90
23597;DHT22;40226;50.874;4.394;2024-02-26T12:38:14;6.70;99.90
23597;DHT22;40226;50.874;4.394;2024-02-26T12:40:40;6.80;99.90
23597;DHT22;40226;50.874;4.394;2024-02-26T12:43:06;6.70;99.90
23597;DHT22;40226;50.874;4.394;2024-02-26T12:45:32;6.90;99.90
23597;DHT22;40226;50.874;4.394;2024-02-26T12:47:59;6.60;99.90
23597;DHT22;40226;50.874;4.394;2024-02-26T12:50:24;6.60;99.90
23597;DHT22;40226;50.874;4.394;2024-02-26T12:52:51;6.70;99.90
23597;DHT22;40226;50.874;4.394;2024-02-26T12:55:20;6.70;99.90
23597;DHT22;40226;50.874;4.394;2024-02-26T12:57:46;6.60;99.90
23597;DHT22;40226;50.874;4.394;2024-02-26T13:00:16;6.50;99.90
23597;DHT22;40226;50.874;4.394;2024-02-26T13:02:44;6.60;99.90
23597;DHT22;40226;50.874;4.394;2024-02-26T13:05:11;6.60;99.90
23597;DHT22;40226;50.874;4.394;2024-02-26T13:07:44;6.70;99.90
23597;DHT22;40226;50.874;4.394;2024-02-26T13:10:10;6.40;99.90
23597;DHT22;40226;50.874;4.394;2024-02-26T13:12:46;6.30;99.90
23597;DHT22;40226;50.874;4.394;2024-02-26T13:15:17;6.20;99.90
23597;DHT22;40226;50.874;4.394;2024-02-26T13:17:46;6.20;99.90
23597;DHT22;40226;50.874;4.394;2024-02-26T13:20:12;6.40;99.90
23597;DHT22;40226;50.874;4.394;2024-02-26T13:22:39;6.40;99.90
23597;DHT22;40226;50.874;4.394;2024-02-26T13:25:05;6.60;99.90
23597;DHT22;40226;50.874;4.394;2024-02-26T13:27:33;6.50;99.90
23597;DHT22;40226;50.874;4.394;2024-02-26T13:30:08;6.50;99.90
23597;DHT22;40226;50.874;4.394;2024-02-26T13:32:39;6.50;99.90
23597;DHT22;40226;50.874;4.394;2024-02-26T13:35:12;6.40;99.90
23597;DHT22;40226;50.874;4.394;2024-02-26T13:37:39;6.30;99.90
23597;DHT22;40226;50.874;4.394;2024-02-26T13:40:09;6.30;99.90
23597;DHT22;40226;50.874;4.394;2024-02-26T13:42:36;6.40;99.90
23597;DHT22;40226;50.874;4.394;2024-02-26T13:45:02;6.50;99.90
23597;DHT22;40226;50.874;4.394;2024-02-26T13:47:28;6.50;99.90
23597;DHT22;40226;50.874;4.394;2024-02-26T13:49:54;6.40;99.90
23597;DHT22;40226;50.874;4.394;2024-02-26T13:52:19;6.40;99.90
23597;DHT22;40226;50.874;4.394;2024-02-26T13:54:46;6.50;99.90
23597;DHT22;40226;50.874;4.394;2024-02-26T13:57:11;6.40;99.90
23597;DHT22;40226;50.874;4.394;2024-02-26T13:59:37;6.40;99.90
23597;DHT22;40226;50.874;4.394;2024-02-26T14:02:07;6.40;99.90
23597;DHT22;40226;50.874;4.394;2024-02-26T14:04:32;6.40;99.90
23597;DHT22;40226;50.874;4.394;2024-02-26T14:06:58;6.60;99.90
23597;DHT22;40226;50.874;4.394;2024-02-26T14:09:23;6.60;99.90
23597;DHT22;40226;50.874;4.394;2024-02-26T14:11:49;6.70;99.90
23597;DHT22;40226;50.874;4.394;2024-02-26T14:14:14;6.80;99.90
23597;DHT22;40226;50.874;4.394;2024-02-26T14:16:40;6.80;99.90
23597;DHT22;40226;50.874;4.394;2024-02-26T14:19:06;6.70;99.90
23597;DHT22;40226;50.874;4.394;2024-02-26T14:21:32;6.70;99.90
23597;DHT22;40226;50.874;4.394;2024-02-26T14:23:57;6.70;99.90
23597;DHT22;40226;50.874;4.394;2024-02-26T14:26:23;6.80;99.90
23597;DHT22;40226;50.874;4.394;2024-02-26T14:28:49;6.70;99.90
23597;DHT22;40226;50.874;4.394;2024-02-26T14:31:17;6.70;99.90
23597;DHT22;40226;50.874;4.394;2024-02-26T14:33:43;6.90;99.90
23597;DHT22;40226;50.874;4.394;2024-02-26T14:36:09;6.80;99.90
23597;DHT22;40226;50.874;4.394;2024-02-26T14:38:35;6.90;99.90
23597;DHT22;40226;50.874;4.394;2024-02-26T14:41:01;7.10;99.90
23597;DHT22;40226;50.874;4.394;2024-02-26T14:43:27;7.00;99.90
23597;DHT22;40226;50.874;4.394;2024-02-26T14:45:53;7.00;99.90
23597;DHT22;40226;50.874;4.394;2024-02-26T14:48:19;6.90;99.90
23597;DHT22;40226;50.874;4.394;2024-02-26T14:50:44;6.90;99.90
23597;DHT22;40226;50.874;4.394;2024-02-26T14:53:10;6.90;99.90
23597;DHT22;40226;50.874;4.394;2024-02-26T14:55:35;7.00;99.90
23597;DHT22;40226;50.874;4.394;2024-02-26T14:58:01;6.80;99.90
23597;DHT22;40226;50.874;4.394;2024-02-26T15:00:26;6.70;99.90
23597;DHT22;40226;50.874;4.394;2024-02-26T15:02:52;6.90;99.90
23597;DHT22;40226;50.874;4.394;2024-02-26T15:05:20;6.90;99.90
23597;DHT22;40226;50.874;4.394;2024-02-26T15:07:45;7.00;99.90
23597;DHT22;40226;50.874;4.394;2024-02-26T15:10:11;6.80;99.90
23597;DHT22;40226;50.874;4.394;2024-02-26T15:12:38;6.60;99.90
23597;DHT22;40226;50.874;4.394;2024-02-26T15:15:04;6.50;99.90
23597;DHT22;40226;50.874;4.394;2024-02-26T15:17:29;6.50;99.90
23597;DHT22;40226;50.874;4.394;2024-02-26T15:19:57;6.40;99.90
23597;DHT22;40226;50.874;4.394;2024-02-26T15:22:24;6.40;99.90
23597;DHT22;40226;50.874;4.394;2024-02-26T15:24:50;6.50;99.90
23597;DHT22;40226;50.874;4.394;2024-02-26T15:27:15;6.60;99.90
23597;DHT22;40226;50.874;4.394;2024-02-26T15:29:42;6.60;99.90
23597;DHT22;40226;50.874;4.394;2024-02-26T15:32:08;6.60;99.90
23597;DHT22;40226;50.874;4.394;2024-02-26T15:34:33;6.70;99.90
23597;DHT22;40226;50.874;4.394;2024-02-26T15:36:59;6.70;99.90
23597;DHT22;40226;50.874;4.394;2024-02-26T15:39:25;6.50;99.90
23597;DHT22;40226;50.874;4.394;2024-02-26T15:41:51;6.60;99.90
23597;DHT22;40226;50.874;4.394;2024-02-26T15:44:17;6.60;99.90
23597;DHT22;40226;50.874;4.394;2024-02-26T15:46:42;6.50;99.90
23597;DHT22;40226;50.874;4.394;2024-02-26T15:49:09;6.50;99.90
23597;DHT22;40226;50.874;4.394;2024-02-26T15:51:35;6.60;99.90
23597;DHT22;40226;50.874;4.394;2024-02-26T15:54:01;6.50;99.90